sensor_id;sensor_type;location;lat;lon;timestamp;P1;durP1;ratioP1;P2;durP2;ratioP2
38023;SDS011;23834;48.080;11.682;2023-04-09T00:00:41;2.70;;;2.50;;
38023;SDS011;23834;48.080;11.682;2023-04-09T00:03:06;2.50;;;2.30;;
38023;SDS011;23834;48.080;11.682;2023-04-09T00:05:32;2.60;;;2.40;;
38023;SDS011;23834;48.080;11.682;2023-04-09T00:07:57;3.03;;;2.80;;
38023;SDS011;23834;48.080;11.682;2023-04-09T00:10:23;2.70;;;2.50;;
38023;SDS011;23834;48.080;11.682;2023-04-09T00:12:48;2.83;;;2.63;;
38023;SDS011;23834;48.080;11.682;2023-04-09T00:15:13;2.33;;;2.23;;
38023;SDS011;23834;48.080;11.682;2023-04-09T00:17:39;2.63;;;2.43;;
38023;SDS011;23834;48.080;11.682;2023-04-09T00:20:04;2.30;;;2.20;;
38023;SDS011;23834;48.080;11.682;2023-04-09T00:22:30;2.77;;;2.57;;
38023;SDS011;23834;48.080;11.682;2023-04-09T00:24:55;2.70;;;2.50;;
38023;SDS011;23834;48.080;11.682;2023-04-09T00:27:21;2.97;;;2.77;;
38023;SDS011;23834;48.080;11.682;2023-04-09T00:29:46;2.70;;;2.50;;
38023;SDS011;23834;48.080;11.682;2023-04-09T00:32:12;2.50;;;2.30;;
38023;SDS011;23834;48.080;11.682;2023-04-09T00:34:37;2.53;;;2.40;;
38023;SDS011;23834;48.080;11.682;2023-04-09T00:37:02;2.87;;;2.67;;
38023;SDS011;23834;48.080;11.682;2023-04-09T00:39:28;3.20;;;2.90;;
38023;SDS011;23834;48.080;11.682;2023-04-09T00:41:56;2.57;;;2.47;;
38023;SDS011;23834;48.080;11.682;2023-04-09T00:44:22;2.60;;;2.33;;
38023;SDS011;23834;48.080;11.682;2023-04-09T00:46:47;2.23;;;2.03;;
38023;SDS011;23834;48.080;11.682;2023-04-09T00:49:12;2.27;;;2.17;;
38023;SDS011;23834;48.080;11.682;2023-04-09T00:51:38;2.90;;;2.70;;
38023;SDS011;23834;48.080;11.682;2023-04-09T00:54:04;2.27;;;2.17;;
38023;SDS011;23834;48.080;11.682;2023-04-09T00:56:29;2.67;;;2.47;;
38023;SDS011;23834;48.080;11.682;2023-04-09T00:58:54;2.63;;;2.53;;
38023;SDS011;23834;48.080;11.682;2023-04-09T01:01:20;2.77;;;2.57;;
38023;SDS011;23834;48.080;11.682;2023-04-09T01:03:45;2.70;;;2.50;;
38023;SDS011;23834;48.080;11.682;2023-04-09T01:06:12;2.40;;;2.20;;
38023;SDS011;23834;48.080;11.682;2023-04-09T01:08:50;2.80;;;2.50;;
38023;SDS011;23834;48.080;11.682;2023-04-09T01:13:54;2.70;;;2.50;;
38023;SDS011;23834;48.080;11.682;2023-04-09T01:16:20;2.80;;;2.63;;
38023;SDS011;23834;48.080;11.682;2023-04-09T01:21:12;3.00;;;2.70;;
38023;SDS011;23834;48.080;11.682;2023-04-09T01:23:45;2.90;;;2.70;;
38023;SDS011;23834;48.080;11.682;2023-04-09T01:26:20;2.57;;;2.37;;
38023;SDS011;23834;48.080;11.682;2023-04-09T01:28:48;2.60;;;2.47;;
38023;SDS011;23834;48.080;11.682;2023-04-09T01:31:16;2.60;;;2.40;;
38023;SDS011;23834;48.080;11.682;2023-04-09T01:33:42;2.43;;;2.33;;
38023;SDS011;23834;48.080;11.682;2023-04-09T01:36:08;2.40;;;2.30;;
38023;SDS011;23834;48.080;11.682;2023-04-09T01:38:38;2.70;;;2.50;;
38023;SDS011;23834;48.080;11.682;2023-04-09T01:41:04;2.80;;;2.60;;
38023;SDS011;23834;48.080;11.682;2023-04-09T01:43:30;2.50;;;2.30;;
38023;SDS011;23834;48.080;11.682;2023-04-09T01:45:56;2.83;;;2.63;;
38023;SDS011;23834;48.080;11.682;2023-04-09T01:48:22;3.00;;;2.80;;
38023;SDS011;23834;48.080;11.682;2023-04-09T01:50:48;2.53;;;2.33;;
38023;SDS011;23834;48.080;11.682;2023-04-09T01:53:14;2.70;;;2.60;;
38023;SDS011;23834;48.080;11.682;2023-04-09T01:55:39;2.57;;;2.37;;
38023;SDS011;23834;48.080;11.682;2023-04-09T01:58:05;2.47;;;2.27;;
38023;SDS011;23834;48.080;11.682;2023-04-09T02:00:31;3.00;;;2.80;;
38023;SDS011;23834;48.080;11.682;2023-04-09T02:05:28;2.53;;;2.43;;
38023;SDS011;23834;48.080;11.682;2023-04-09T02:07:54;2.63;;;2.43;;
38023;SDS011;23834;48.080;11.682;2023-04-09T02:10:21;2.80;;;2.60;;
38023;SDS011;23834;48.080;11.682;2023-04-09T02:12:48;2.40;;;2.20;;
38023;SDS011;23834;48.080;11.682;2023-04-09T02:15:14;2.50;;;2.30;;
38023;SDS011;23834;48.080;11.682;2023-04-09T02:17:40;2.73;;;2.50;;
38023;SDS011;23834;48.080;11.682;2023-04-09T02:20:05;2.70;;;2.47;;
38023;SDS011;23834;48.080;11.682;2023-04-09T02:22:31;2.20;;;2.10;;
38023;SDS011;23834;48.080;11.682;2023-04-09T02:24:56;2.47;;;2.33;;
38023;SDS011;23834;48.080;11.682;2023-04-09T02:27:21;2.57;;;2.43;;
38023;SDS011;23834;48.080;11.682;2023-04-09T02:29:46;2.70;;;2.50;;
38023;SDS011;23834;48.080;11.682;2023-04-09T02:32:12;2.57;;;2.37;;
38023;SDS011;23834;48.080;11.682;2023-04-09T02:34:37;2.53;;;2.33;;
38023;SDS011;23834;48.080;11.682;2023-04-09T02:37:02;2.63;;;2.43;;
38023;SDS011;23834;48.080;11.682;2023-04-09T02:39:27;2.67;;;2.47;;
38023;SDS011;23834;48.080;11.682;2023-04-09T02:41:52;2.30;;;2.10;;
38023;SDS011;23834;48.080;11.682;2023-04-09T02:44:18;2.90;;;2.70;;
38023;SDS011;23834;48.080;11.682;2023-04-09T02:46:43;2.40;;;2.30;;
38023;SDS011;23834;48.080;11.682;2023-04-09T02:49:08;2.50;;;2.40;;
38023;SDS011;23834;48.080;11.682;2023-04-09T02:51:34;2.70;;;2.50;;
38023;SDS011;23834;48.080;11.682;2023-04-09T02:53:59;2.70;;;2.50;;
38023;SDS011;23834;48.080;11.682;2023-04-09T02:56:25;2.73;;;2.53;;
38023;SDS011;23834;48.080;11.682;2023-04-09T02:58:50;3.03;;;2.80;;
38023;SDS011;23834;48.080;11.682;2023-04-09T03:01:18;2.70;;;2.50;;
38023;SDS011;23834;48.080;11.682;2023-04-09T03:03:43;2.17;;;2.07;;
38023;SDS011;23834;48.080;11.682;2023-04-09T03:06:08;2.20;;;2.10;;
38023;SDS011;23834;48.080;11.682;2023-04-09T03:08:33;2.63;;;2.53;;
38023;SDS011;23834;48.080;11.682;2023-04-09T03:10:59;2.30;;;2.20;;
38023;SDS011;23834;48.080;11.682;2023-04-09T03:13:26;2.40;;;2.20;;
38023;SDS011;23834;48.080;11.682;2023-04-09T03:15:51;2.33;;;2.20;;
38023;SDS011;23834;48.080;11.682;2023-04-09T03:18:19;2.80;;;2.60;;
38023;SDS011;23834;48.080;11.682;2023-04-09T03:20:44;2.60;;;2.40;;
38023;SDS011;23834;48.080;11.682;2023-04-09T03:23:09;2.83;;;2.60;;
38023;SDS011;23834;48.080;11.682;2023-04-09T03:25:35;3.00;;;2.70;;
38023;SDS011;23834;48.080;11.682;2023-04-09T03:28:00;2.80;;;2.60;;
38023;SDS011;23834;48.080;11.682;2023-04-09T03:30:25;2.17;;;2.07;;
38023;SDS011;23834;48.080;11.682;2023-04-09T03:32:50;3.00;;;2.80;;
38023;SDS011;23834;48.080;11.682;2023-04-09T03:35:15;2.70;;;2.50;;
38023;SDS011;23834;48.080;11.682;2023-04-09T03:37:41;2.47;;;2.37;;
38023;SDS011;23834;48.080;11.682;2023-04-09T03:40:06;2.70;;;2.50;;
38023;SDS011;23834;48.080;11.682;2023-04-09T03:42:31;2.60;;;2.40;;
38023;SDS011;23834;48.080;11.682;2023-04-09T03:44:58;2.57;;;2.37;;
38023;SDS011;23834;48.080;11.682;2023-04-09T03:47:24;3.03;;;2.83;;
38023;SDS011;23834;48.080;11.682;2023-04-09T03:49:49;2.30;;;2.20;;
38023;SDS011;23834;48.080;11.682;2023-04-09T03:52:14;2.50;;;2.30;;
38023;SDS011;23834;48.080;11.682;2023-04-09T03:54:39;2.90;;;2.70;;
38023;SDS011;23834;48.080;11.682;2023-04-09T03:57:05;2.60;;;2.40;;
38023;SDS011;23834;48.080;11.682;2023-04-09T03:59:30;2.83;;;2.63;;
38023;SDS011;23834;48.080;11.682;2023-04-09T04:01:55;2.83;;;2.70;;
38023;SDS011;23834;48.080;11.682;2023-04-09T04:04:20;2.90;;;2.70;;
38023;SDS011;23834;48.080;11.682;2023-04-09T04:06:46;2.90;;;2.70;;
38023;SDS011;23834;48.080;11.682;2023-04-09T04:09:11;2.00;;;1.80;;
38023;SDS011;23834;48.080;11.682;2023-04-09T04:11:36;2.93;;;2.73;;
38023;SDS011;23834;48.080;11.682;2023-04-09T04:14:01;2.93;;;2.73;;
38023;SDS011;23834;48.080;11.682;2023-04-09T04:16:26;2.70;;;2.50;;
38023;SDS011;23834;48.080;11.682;2023-04-09T04:18:51;2.87;;;2.67;;
38023;SDS011;23834;48.080;11.682;2023-04-09T04:21:17;2.33;;;2.23;;
38023;SDS011;23834;48.080;11.682;2023-04-09T04:23:42;2.47;;;2.27;;
38023;SDS011;23834;48.080;11.682;2023-04-09T04:26:07;2.90;;;2.70;;
38023;SDS011;23834;48.080;11.682;2023-04-09T04:28:34;2.30;;;2.20;;
38023;SDS011;23834;48.080;11.682;2023-04-09T04:30:59;2.90;;;2.70;;
38023;SDS011;23834;48.080;11.682;2023-04-09T04:33:24;2.60;;;2.40;;
38023;SDS011;23834;48.080;11.682;2023-04-09T04:35:50;2.80;;;2.60;;
38023;SDS011;23834;48.080;11.682;2023-04-09T04:38:15;2.60;;;2.40;;
38023;SDS011;23834;48.080;11.682;2023-04-09T04:40:40;2.30;;;2.20;;
38023;SDS011;23834;48.080;11.682;2023-04-09T04:43:05;2.40;;;2.20;;
38023;SDS011;23834;48.080;11.682;2023-04-09T04:45:30;2.50;;;2.30;;
38023;SDS011;23834;48.080;11.682;2023-04-09T04:47:55;2.67;;;2.40;;
38023;SDS011;23834;48.080;11.682;2023-04-09T04:50:21;2.43;;;2.23;;
38023;SDS011;23834;48.080;11.682;2023-04-09T04:52:46;2.80;;;2.60;;
38023;SDS011;23834;48.080;11.682;2023-04-09T04:55:11;2.57;;;2.37;;
38023;SDS011;23834;48.080;11.682;2023-04-09T04:57:36;2.57;;;2.40;;
38023;SDS011;23834;48.080;11.682;2023-04-09T05:00:02;2.77;;;2.47;;
38023;SDS011;23834;48.080;11.682;2023-04-09T05:02:27;3.00;;;2.80;;
38023;SDS011;23834;48.080;11.682;2023-04-09T05:04:52;2.47;;;2.27;;
38023;SDS011;23834;48.080;11.682;2023-04-09T05:07:17;2.30;;;2.20;;
38023;SDS011;23834;48.080;11.682;2023-04-09T05:09:42;3.00;;;2.80;;
38023;SDS011;23834;48.080;11.682;2023-04-09T05:12:08;3.40;;;3.20;;
38023;SDS011;23834;48.080;11.682;2023-04-09T05:14:33;3.70;;;3.40;;
38023;SDS011;23834;48.080;11.682;2023-04-09T05:16:58;3.67;;;3.40;;
38023;SDS011;23834;48.080;11.682;2023-04-09T05:19:23;3.60;;;3.40;;
38023;SDS011;23834;48.080;11.682;2023-04-09T05:21:49;3.80;;;3.50;;
38023;SDS011;23834;48.080;11.682;2023-04-09T05:24:14;3.80;;;3.50;;
38023;SDS011;23834;48.080;11.682;2023-04-09T05:26:39;3.57;;;3.30;;
38023;SDS011;23834;48.080;11.682;2023-04-09T05:29:04;3.83;;;3.57;;
38023;SDS011;23834;48.080;11.682;2023-04-09T05:31:30;3.23;;;2.93;;
38023;SDS011;23834;48.080;11.682;2023-04-09T05:33:55;3.40;;;3.17;;
38023;SDS011;23834;48.080;11.682;2023-04-09T05:36:20;3.13;;;2.93;;
38023;SDS011;23834;48.080;11.682;2023-04-09T05:38:46;3.60;;;3.37;;
38023;SDS011;23834;48.080;11.682;2023-04-09T05:41:11;3.27;;;3.07;;
38023;SDS011;23834;48.080;11.682;2023-04-09T05:43:36;3.20;;;3.00;;
38023;SDS011;23834;48.080;11.682;2023-04-09T05:46:02;3.50;;;3.30;;
38023;SDS011;23834;48.080;11.682;2023-04-09T05:48:27;3.27;;;3.07;;
38023;SDS011;23834;48.080;11.682;2023-04-09T05:50:52;3.03;;;2.83;;
38023;SDS011;23834;48.080;11.682;2023-04-09T05:53:18;2.90;;;2.70;;
38023;SDS011;23834;48.080;11.682;2023-04-09T05:55:43;3.67;;;3.30;;
38023;SDS011;23834;48.080;11.682;2023-04-09T05:58:08;2.90;;;2.70;;
38023;SDS011;23834;48.080;11.682;2023-04-09T06:00:34;2.83;;;2.63;;
38023;SDS011;23834;48.080;11.682;2023-04-09T06:02:59;2.93;;;2.73;;
38023;SDS011;23834;48.080;11.682;2023-04-09T06:05:24;3.47;;;3.27;;
38023;SDS011;23834;48.080;11.682;2023-04-09T06:07:49;3.13;;;2.93;;
38023;SDS011;23834;48.080;11.682;2023-04-09T06:10:14;3.07;;;2.87;;
38023;SDS011;23834;48.080;11.682;2023-04-09T06:12:40;3.23;;;3.00;;
38023;SDS011;23834;48.080;11.682;2023-04-09T06:15:05;3.37;;;3.17;;
38023;SDS011;23834;48.080;11.682;2023-04-09T06:17:30;3.27;;;3.07;;
38023;SDS011;23834;48.080;11.682;2023-04-09T06:19:55;3.60;;;3.30;;
38023;SDS011;23834;48.080;11.682;2023-04-09T06:22:21;2.90;;;2.70;;
38023;SDS011;23834;48.080;11.682;2023-04-09T06:24:46;3.17;;;2.97;;
38023;SDS011;23834;48.080;11.682;2023-04-09T06:27:11;3.67;;;3.37;;
38023;SDS011;23834;48.080;11.682;2023-04-09T06:29:36;3.10;;;2.90;;
38023;SDS011;23834;48.080;11.682;2023-04-09T06:32:01;3.30;;;3.10;;
38023;SDS011;23834;48.080;11.682;2023-04-09T06:34:27;3.90;;;3.70;;
38023;SDS011;23834;48.080;11.682;2023-04-09T06:36:52;3.40;;;3.20;;
38023;SDS011;23834;48.080;11.682;2023-04-09T06:39:17;3.07;;;2.87;;
38023;SDS011;23834;48.080;11.682;2023-04-09T06:41:42;3.10;;;2.90;;
38023;SDS011;23834;48.080;11.682;2023-04-09T06:44:07;2.97;;;2.77;;
38023;SDS011;23834;48.080;11.682;2023-04-09T06:46:33;3.07;;;2.87;;
38023;SDS011;23834;48.080;11.682;2023-04-09T06:48:58;3.17;;;2.93;;
38023;SDS011;23834;48.080;11.682;2023-04-09T06:51:23;3.33;;;3.13;;
38023;SDS011;23834;48.080;11.682;2023-04-09T06:53:48;3.00;;;2.80;;
38023;SDS011;23834;48.080;11.682;2023-04-09T06:56:13;3.33;;;3.03;;
38023;SDS011;23834;48.080;11.682;2023-04-09T06:58:39;3.10;;;2.90;;
38023;SDS011;23834;48.080;11.682;2023-04-09T07:01:04;2.63;;;2.50;;
38023;SDS011;23834;48.080;11.682;2023-04-09T07:03:30;3.10;;;2.90;;
38023;SDS011;23834;48.080;11.682;2023-04-09T07:05:55;2.70;;;2.50;;
38023;SDS011;23834;48.080;11.682;2023-04-09T07:08:21;3.13;;;2.93;;
38023;SDS011;23834;48.080;11.682;2023-04-09T07:10:47;2.90;;;2.63;;
38023;SDS011;23834;48.080;11.682;2023-04-09T07:13:12;2.80;;;2.60;;
38023;SDS011;23834;48.080;11.682;2023-04-09T07:15:37;2.70;;;2.50;;
38023;SDS011;23834;48.080;11.682;2023-04-09T07:18:02;3.13;;;2.93;;
38023;SDS011;23834;48.080;11.682;2023-04-09T07:20:28;3.00;;;2.80;;
38023;SDS011;23834;48.080;11.682;2023-04-09T07:22:53;2.70;;;2.50;;
38023;SDS011;23834;48.080;11.682;2023-04-09T07:25:18;3.10;;;2.90;;
38023;SDS011;23834;48.080;11.682;2023-04-09T07:27:43;2.90;;;2.70;;
38023;SDS011;23834;48.080;11.682;2023-04-09T07:30:08;3.00;;;2.80;;
38023;SDS011;23834;48.080;11.682;2023-04-09T07:32:35;2.60;;;2.43;;
38023;SDS011;23834;48.080;11.682;2023-04-09T07:35:01;2.70;;;2.50;;
38023;SDS011;23834;48.080;11.682;2023-04-09T07:37:26;2.90;;;2.70;;
38023;SDS011;23834;48.080;11.682;2023-04-09T07:39:52;3.00;;;2.80;;
38023;SDS011;23834;48.080;11.682;2023-04-09T07:42:17;2.77;;;2.57;;
38023;SDS011;23834;48.080;11.682;2023-04-09T07:44:42;3.30;;;3.00;;
38023;SDS011;23834;48.080;11.682;2023-04-09T07:47:08;2.67;;;2.47;;
38023;SDS011;23834;48.080;11.682;2023-04-09T07:49:36;3.13;;;2.90;;
38023;SDS011;23834;48.080;11.682;2023-04-09T07:52:02;2.70;;;2.50;;
38023;SDS011;23834;48.080;11.682;2023-04-09T07:54:27;3.00;;;2.80;;
38023;SDS011;23834;48.080;11.682;2023-04-09T07:56:52;2.73;;;2.60;;
38023;SDS011;23834;48.080;11.682;2023-04-09T07:59:18;3.00;;;2.80;;
38023;SDS011;23834;48.080;11.682;2023-04-09T08:01:43;3.10;;;2.87;;
38023;SDS011;23834;48.080;11.682;2023-04-09T08:04:08;3.00;;;2.80;;
38023;SDS011;23834;48.080;11.682;2023-04-09T08:06:34;3.27;;;2.97;;
38023;SDS011;23834;48.080;11.682;2023-04-09T08:09:00;2.93;;;2.73;;
38023;SDS011;23834;48.080;11.682;2023-04-09T08:11:25;3.03;;;2.83;;
38023;SDS011;23834;48.080;11.682;2023-04-09T08:13:51;3.40;;;3.10;;
38023;SDS011;23834;48.080;11.682;2023-04-09T08:16:16;3.17;;;2.97;;
38023;SDS011;23834;48.080;11.682;2023-04-09T08:18:41;2.80;;;2.60;;
38023;SDS011;23834;48.080;11.682;2023-04-09T08:21:06;2.90;;;2.70;;
38023;SDS011;23834;48.080;11.682;2023-04-09T08:23:31;3.27;;;3.07;;
38023;SDS011;23834;48.080;11.682;2023-04-09T08:25:56;2.83;;;2.63;;
38023;SDS011;23834;48.080;11.682;2023-04-09T08:28:22;3.40;;;3.20;;
38023;SDS011;23834;48.080;11.682;2023-04-09T08:30:47;3.30;;;3.00;;
38023;SDS011;23834;48.080;11.682;2023-04-09T08:33:12;3.50;;;3.20;;
38023;SDS011;23834;48.080;11.682;2023-04-09T08:35:38;3.37;;;3.07;;
38023;SDS011;23834;48.080;11.682;2023-04-09T08:38:05;3.43;;;3.13;;
38023;SDS011;23834;48.080;11.682;2023-04-09T08:40:33;3.30;;;3.10;;
38023;SDS011;23834;48.080;11.682;2023-04-09T08:42:58;3.40;;;3.10;;
38023;SDS011;23834;48.080;11.682;2023-04-09T08:45:23;3.80;;;3.30;;
38023;SDS011;23834;48.080;11.682;2023-04-09T08:47:49;3.03;;;2.83;;
38023;SDS011;23834;48.080;11.682;2023-04-09T08:50:14;3.30;;;3.10;;
38023;SDS011;23834;48.080;11.682;2023-04-09T08:52:40;3.57;;;3.10;;
38023;SDS011;23834;48.080;11.682;2023-04-09T08:55:05;3.50;;;3.20;;
38023;SDS011;23834;48.080;11.682;2023-04-09T08:57:35;3.00;;;2.80;;
38023;SDS011;23834;48.080;11.682;2023-04-09T09:00:00;3.57;;;3.27;;
38023;SDS011;23834;48.080;11.682;2023-04-09T09:02:26;3.70;;;3.40;;
38023;SDS011;23834;48.080;11.682;2023-04-09T09:04:51;3.87;;;3.60;;
38023;SDS011;23834;48.080;11.682;2023-04-09T09:07:19;3.27;;;3.07;;
38023;SDS011;23834;48.080;11.682;2023-04-09T09:09:53;3.70;;;3.40;;
38023;SDS011;23834;48.080;11.682;2023-04-09T09:12:32;3.80;;;3.50;;
38023;SDS011;23834;48.080;11.682;2023-04-09T09:14:58;3.60;;;3.30;;
38023;SDS011;23834;48.080;11.682;2023-04-09T09:17:23;3.33;;;3.13;;
38023;SDS011;23834;48.080;11.682;2023-04-09T09:19:48;3.97;;;3.60;;
38023;SDS011;23834;48.080;11.682;2023-04-09T09:22:13;3.93;;;3.63;;
38023;SDS011;23834;48.080;11.682;2023-04-09T09:24:48;3.93;;;3.63;;
38023;SDS011;23834;48.080;11.682;2023-04-09T09:30:04;4.13;;;3.83;;
38023;SDS011;23834;48.080;11.682;2023-04-09T09:32:33;4.03;;;3.73;;
38023;SDS011;23834;48.080;11.682;2023-04-09T09:37:26;4.50;;;4.10;;
38023;SDS011;23834;48.080;11.682;2023-04-09T09:39:52;4.53;;;4.13;;
38023;SDS011;23834;48.080;11.682;2023-04-09T09:42:17;5.07;;;4.57;;
38023;SDS011;23834;48.080;11.682;2023-04-09T09:44:43;4.27;;;3.97;;
38023;SDS011;23834;48.080;11.682;2023-04-09T09:47:08;4.63;;;4.23;;
38023;SDS011;23834;48.080;11.682;2023-04-09T09:49:33;4.67;;;4.27;;
38023;SDS011;23834;48.080;11.682;2023-04-09T09:51:59;4.30;;;3.90;;
38023;SDS011;23834;48.080;11.682;2023-04-09T09:54:26;4.00;;;3.70;;
38023;SDS011;23834;48.080;11.682;2023-04-09T09:56:55;5.00;;;4.63;;
38023;SDS011;23834;48.080;11.682;2023-04-09T09:59:22;4.30;;;3.93;;
38023;SDS011;23834;48.080;11.682;2023-04-09T10:01:54;5.20;;;4.77;;
38023;SDS011;23834;48.080;11.682;2023-04-09T10:04:21;4.90;;;4.40;;
38023;SDS011;23834;48.080;11.682;2023-04-09T10:06:47;4.33;;;4.03;;
38023;SDS011;23834;48.080;11.682;2023-04-09T10:09:13;4.33;;;4.00;;
38023;SDS011;23834;48.080;11.682;2023-04-09T10:11:38;4.87;;;4.27;;
38023;SDS011;23834;48.080;11.682;2023-04-09T10:14:08;4.30;;;4.00;;
38023;SDS011;23834;48.080;11.682;2023-04-09T10:16:33;4.37;;;4.07;;
38023;SDS011;23834;48.080;11.682;2023-04-09T10:18:59;4.50;;;4.10;;
38023;SDS011;23834;48.080;11.682;2023-04-09T10:23:51;4.70;;;4.30;;
38023;SDS011;23834;48.080;11.682;2023-04-09T10:26:17;4.57;;;4.17;;
38023;SDS011;23834;48.080;11.682;2023-04-09T10:28:42;4.60;;;4.20;;
38023;SDS011;23834;48.080;11.682;2023-04-09T10:31:07;4.90;;;4.50;;
38023;SDS011;23834;48.080;11.682;2023-04-09T10:33:32;4.10;;;3.70;;
38023;SDS011;23834;48.080;11.682;2023-04-09T10:36:01;4.40;;;4.03;;
38023;SDS011;23834;48.080;11.682;2023-04-09T10:38:34;4.20;;;3.90;;
38023;SDS011;23834;48.080;11.682;2023-04-09T10:41:06;4.27;;;3.87;;
38023;SDS011;23834;48.080;11.682;2023-04-09T10:43:33;4.37;;;3.97;;
38023;SDS011;23834;48.080;11.682;2023-04-09T10:45:59;4.03;;;3.73;;
38023;SDS011;23834;48.080;11.682;2023-04-09T10:48:24;4.70;;;4.30;;
38023;SDS011;23834;48.080;11.682;2023-04-09T10:50:50;4.47;;;4.07;;
38023;SDS011;23834;48.080;11.682;2023-04-09T10:53:22;4.97;;;4.57;;
38023;SDS011;23834;48.080;11.682;2023-04-09T10:55:48;4.87;;;4.37;;
38023;SDS011;23834;48.080;11.682;2023-04-09T10:58:14;4.53;;;4.13;;
38023;SDS011;23834;48.080;11.682;2023-04-09T11:00:41;4.50;;;4.10;;
38023;SDS011;23834;48.080;11.682;2023-04-09T11:03:20;4.37;;;4.00;;
38023;SDS011;23834;48.080;11.682;2023-04-09T11:06:07;4.40;;;4.00;;
38023;SDS011;23834;48.080;11.682;2023-04-09T11:08:33;4.40;;;4.10;;
38023;SDS011;23834;48.080;11.682;2023-04-09T11:10:58;4.47;;;3.67;;
38023;SDS011;23834;48.080;11.682;2023-04-09T11:13:25;4.90;;;4.40;;
38023;SDS011;23834;48.080;11.682;2023-04-09T11:15:50;4.80;;;4.40;;
38023;SDS011;23834;48.080;11.682;2023-04-09T11:18:22;4.47;;;4.07;;
38023;SDS011;23834;48.080;11.682;2023-04-09T11:20:48;4.73;;;4.33;;
38023;SDS011;23834;48.080;11.682;2023-04-09T11:23:14;4.50;;;4.10;;
38023;SDS011;23834;48.080;11.682;2023-04-09T11:25:39;4.70;;;4.30;;
38023;SDS011;23834;48.080;11.682;2023-04-09T11:28:05;4.80;;;4.30;;
38023;SDS011;23834;48.080;11.682;2023-04-09T11:30:32;4.70;;;4.30;;
38023;SDS011;23834;48.080;11.682;2023-04-09T11:32:58;4.90;;;4.50;;
38023;SDS011;23834;48.080;11.682;2023-04-09T11:35:23;4.43;;;4.10;;
38023;SDS011;23834;48.080;11.682;2023-04-09T11:37:48;5.53;;;5.03;;
38023;SDS011;23834;48.080;11.682;2023-04-09T11:42:45;4.90;;;4.40;;
38023;SDS011;23834;48.080;11.682;2023-04-09T11:45:10;5.93;;;5.40;;
38023;SDS011;23834;48.080;11.682;2023-04-09T11:47:36;4.90;;;4.50;;
38023;SDS011;23834;48.080;11.682;2023-04-09T11:50:02;4.97;;;4.47;;
38023;SDS011;23834;48.080;11.682;2023-04-09T11:52:28;5.00;;;4.50;;
38023;SDS011;23834;48.080;11.682;2023-04-09T11:54:58;4.43;;;4.13;;
38023;SDS011;23834;48.080;11.682;2023-04-09T11:57:24;4.70;;;4.30;;
38023;SDS011;23834;48.080;11.682;2023-04-09T11:59:49;5.33;;;4.83;;
38023;SDS011;23834;48.080;11.682;2023-04-09T12:02:16;4.47;;;4.10;;
38023;SDS011;23834;48.080;11.682;2023-04-09T12:04:48;4.97;;;4.53;;
38023;SDS011;23834;48.080;11.682;2023-04-09T12:07:13;4.67;;;4.27;;
38023;SDS011;23834;48.080;11.682;2023-04-09T12:09:47;5.23;;;4.73;;
38023;SDS011;23834;48.080;11.682;2023-04-09T12:12:16;4.80;;;4.40;;
38023;SDS011;23834;48.080;11.682;2023-04-09T12:14:44;4.77;;;4.40;;
38023;SDS011;23834;48.080;11.682;2023-04-09T12:17:09;5.00;;;4.60;;
38023;SDS011;23834;48.080;11.682;2023-04-09T12:19:35;4.47;;;4.10;;
38023;SDS011;23834;48.080;11.682;2023-04-09T12:22:00;4.27;;;3.87;;
38023;SDS011;23834;48.080;11.682;2023-04-09T12:24:25;4.60;;;4.30;;
38023;SDS011;23834;48.080;11.682;2023-04-09T12:26:52;5.13;;;4.63;;
38023;SDS011;23834;48.080;11.682;2023-04-09T12:29:18;5.10;;;4.63;;
38023;SDS011;23834;48.080;11.682;2023-04-09T12:31:44;5.10;;;4.50;;
38023;SDS011;23834;48.080;11.682;2023-04-09T12:34:10;5.20;;;4.70;;
38023;SDS011;23834;48.080;11.682;2023-04-09T12:36:36;5.03;;;4.60;;
38023;SDS011;23834;48.080;11.682;2023-04-09T12:39:01;5.37;;;4.60;;
38023;SDS011;23834;48.080;11.682;2023-04-09T12:41:27;4.67;;;4.20;;
38023;SDS011;23834;48.080;11.682;2023-04-09T12:43:52;5.33;;;4.83;;
38023;SDS011;23834;48.080;11.682;2023-04-09T12:46:18;4.80;;;4.23;;
38023;SDS011;23834;48.080;11.682;2023-04-09T12:48:43;5.23;;;4.83;;
38023;SDS011;23834;48.080;11.682;2023-04-09T12:51:08;4.50;;;4.10;;
38023;SDS011;23834;48.080;11.682;2023-04-09T12:53:35;5.20;;;4.70;;
38023;SDS011;23834;48.080;11.682;2023-04-09T12:56:00;4.43;;;4.03;;
38023;SDS011;23834;48.080;11.682;2023-04-09T12:58:25;5.30;;;4.80;;
38023;SDS011;23834;48.080;11.682;2023-04-09T13:00:51;6.00;;;5.03;;
38023;SDS011;23834;48.080;11.682;2023-04-09T13:03:18;5.73;;;5.20;;
38023;SDS011;23834;48.080;11.682;2023-04-09T13:05:43;5.50;;;5.00;;
38023;SDS011;23834;48.080;11.682;2023-04-09T13:08:08;5.17;;;4.77;;
38023;SDS011;23834;48.080;11.682;2023-04-09T13:10:34;5.90;;;4.80;;
38023;SDS011;23834;48.080;11.682;2023-04-09T13:12:59;5.40;;;4.90;;
38023;SDS011;23834;48.080;11.682;2023-04-09T13:15:24;4.83;;;4.40;;
38023;SDS011;23834;48.080;11.682;2023-04-09T13:17:50;5.27;;;4.87;;
38023;SDS011;23834;48.080;11.682;2023-04-09T13:20:15;4.83;;;4.47;;
38023;SDS011;23834;48.080;11.682;2023-04-09T13:22:40;5.67;;;5.07;;
38023;SDS011;23834;48.080;11.682;2023-04-09T13:25:05;5.60;;;5.13;;
38023;SDS011;23834;48.080;11.682;2023-04-09T13:27:30;5.47;;;4.97;;
38023;SDS011;23834;48.080;11.682;2023-04-09T13:29:56;5.50;;;5.00;;
38023;SDS011;23834;48.080;11.682;2023-04-09T13:32:21;5.40;;;5.00;;
38023;SDS011;23834;48.080;11.682;2023-04-09T13:34:48;5.33;;;4.83;;
38023;SDS011;23834;48.080;11.682;2023-04-09T13:37:13;4.90;;;4.53;;
38023;SDS011;23834;48.080;11.682;2023-04-09T13:39:38;5.47;;;4.97;;
38023;SDS011;23834;48.080;11.682;2023-04-09T13:42:03;5.50;;;5.03;;
38023;SDS011;23834;48.080;11.682;2023-04-09T13:44:29;5.30;;;4.90;;
38023;SDS011;23834;48.080;11.682;2023-04-09T13:46:54;5.10;;;4.60;;
38023;SDS011;23834;48.080;11.682;2023-04-09T13:49:19;5.23;;;4.80;;
38023;SDS011;23834;48.080;11.682;2023-04-09T13:51:45;4.93;;;4.53;;
38023;SDS011;23834;48.080;11.682;2023-04-09T13:54:10;5.70;;;5.20;;
38023;SDS011;23834;48.080;11.682;2023-04-09T13:56:36;5.13;;;4.73;;
38023;SDS011;23834;48.080;11.682;2023-04-09T13:59:01;5.37;;;4.87;;
38023;SDS011;23834;48.080;11.682;2023-04-09T14:01:26;5.70;;;4.70;;
38023;SDS011;23834;48.080;11.682;2023-04-09T14:03:52;4.77;;;4.37;;
38023;SDS011;23834;48.080;11.682;2023-04-09T14:06:17;5.90;;;5.40;;
38023;SDS011;23834;48.080;11.682;2023-04-09T14:08:42;5.10;;;4.70;;
38023;SDS011;23834;48.080;11.682;2023-04-09T14:11:07;5.37;;;4.87;;
38023;SDS011;23834;48.080;11.682;2023-04-09T14:13:34;5.50;;;5.00;;
38023;SDS011;23834;48.080;11.682;2023-04-09T14:16:00;5.60;;;5.10;;
38023;SDS011;23834;48.080;11.682;2023-04-09T14:18:25;5.37;;;4.90;;
38023;SDS011;23834;48.080;11.682;2023-04-09T14:20:50;5.47;;;4.97;;
38023;SDS011;23834;48.080;11.682;2023-04-09T14:23:15;6.07;;;4.57;;
38023;SDS011;23834;48.080;11.682;2023-04-09T14:25:40;5.80;;;5.30;;
38023;SDS011;23834;48.080;11.682;2023-04-09T14:28:06;6.10;;;5.10;;
38023;SDS011;23834;48.080;11.682;2023-04-09T14:30:31;6.10;;;5.50;;
38023;SDS011;23834;48.080;11.682;2023-04-09T14:32:56;5.73;;;5.30;;
38023;SDS011;23834;48.080;11.682;2023-04-09T14:35:21;5.77;;;5.27;;
38023;SDS011;23834;48.080;11.682;2023-04-09T14:37:47;5.60;;;4.90;;
38023;SDS011;23834;48.080;11.682;2023-04-09T14:40:12;5.57;;;5.07;;
38023;SDS011;23834;48.080;11.682;2023-04-09T14:42:38;6.00;;;5.40;;